createdAt,value
2019-02-11T00:01:41.424Z,99361.69
2019-02-11T00:04:13.339Z,99364.09
2019-02-11T00:06:45.253Z,99366.70
2019-02-11T00:09:17.158Z,99379.05
2019-02-11T00:11:49.053Z,99373.90
2019-02-11T00:14:20.966Z,99383.08
2019-02-11T00:16:52.957Z,99385.38
2019-02-11T00:19:24.937Z,99391.52
2019-02-11T00:21:57.510Z,99390.99
2019-02-11T00:24:29.429Z,99398.28
2019-02-11T00:27:01.362Z,99398.30
2019-02-11T00:29:33.258Z,99400.59
2019-02-11T00:32:05.172Z,99408.79
2019-02-11T00:34:37.073Z,99409.45
2019-02-11T00:37:08.998Z,99421.41
2019-02-11T00:39:40.904Z,99421.58
2019-02-11T00:42:13.202Z,99431.15
2019-02-11T00:44:45.131Z,99440.78
2019-02-11T00:47:17.046Z,99435.66
2019-02-11T00:49:48.950Z,99444.47
2019-02-11T00:52:20.864Z,99459.49
2019-02-11T00:54:52.871Z,99461.25
2019-02-11T00:57:24.776Z,99472.29
2019-02-11T00:59:56.694Z,99473.70
2019-02-11T01:02:28.916Z,99494.97
2019-02-11T01:05:01.286Z,99489.66
2019-02-11T01:07:33.224Z,99510.57
2019-02-11T01:10:08.586Z,99513.10
2019-02-11T01:12:40.471Z,99519.55
2019-02-11T01:15:13.408Z,99535.33
2019-02-11T01:17:45.469Z,99548.02
2019-02-11T01:20:17.391Z,99541.45
2019-02-11T01:22:49.309Z,99556.97
2019-02-11T01:25:21.247Z,99559.36
2019-02-11T01:27:53.952Z,99569.50
2019-02-11T01:30:25.879Z,99582.95
2019-02-11T01:32:57.775Z,99580.45
2019-02-11T01:35:29.782Z,99573.61
2019-02-11T01:38:01.763Z,99584.00
2019-02-11T01:40:33.866Z,99591.95
2019-02-11T01:43:05.766Z,99607.77
2019-02-11T01:45:37.832Z,99605.73
2019-02-11T01:48:09.747Z,99603.09
2019-02-11T01:50:41.830Z,99612.36
2019-02-11T01:53:14.018Z,99621.16
2019-02-11T01:55:45.927Z,99621.13
2019-02-11T01:58:17.957Z,99632.37
2019-02-11T02:00:49.862Z,99634.95
2019-02-11T02:03:21.775Z,99643.73
2019-02-11T02:05:53.698Z,99641.95
2019-02-11T02:08:25.609Z,99643.86
2019-02-11T02:10:57.536Z,99653.60
2019-02-11T02:13:29.526Z,99658.84
2019-02-11T02:16:01.468Z,99663.08
2019-02-11T02:18:33.401Z,99673.30
2019-02-11T02:21:05.663Z,99661.50
2019-02-11T02:23:37.835Z,99667.50
2019-02-11T02:26:09.764Z,99676.13
2019-02-11T02:28:41.673Z,99687.78
2019-02-11T02:31:13.605Z,99689.94
2019-02-11T02:33:45.953Z,99679.28
2019-02-11T02:36:17.963Z,99705.64
2019-02-11T02:38:50.198Z,99691.65
2019-02-11T02:41:22.128Z,99700.91
2019-02-11T02:43:55.908Z,99704.46
2019-02-11T02:46:27.692Z,99723.94
2019-02-11T02:48:59.595Z,99726.81
2019-02-11T02:51:31.614Z,99738.38
2019-02-11T02:54:03.506Z,99741.84
2019-02-11T02:56:35.413Z,99748.16
2019-02-11T02:59:07.360Z,99742.77
2019-02-11T03:01:39.266Z,99748.22
2019-02-11T03:04:11.358Z,99743.40
2019-02-11T03:06:43.267Z,99750.92
2019-02-11T03:09:15.210Z,99752.20
2019-02-11T03:11:47.279Z,99765.29
2019-02-11T03:14:19.219Z,99759.16
2019-02-11T03:16:51.122Z,99765.72
2019-02-11T03:19:23.046Z,99771.05
2019-02-11T03:21:55.046Z,99778.34
2019-02-11T03:24:27.047Z,99786.38
2019-02-11T03:26:58.957Z,99792.69
2019-02-11T03:29:30.914Z,99819.42
2019-02-11T03:32:02.822Z,99803.29
2019-02-11T03:34:34.769Z,99801.92
2019-02-11T03:37:06.690Z,99801.32
2019-02-11T03:39:38.689Z,99810.98
2019-02-11T03:42:10.597Z,99816.41
2019-02-11T03:44:42.556Z,99828.09
2019-02-11T03:47:14.527Z,99830.27
2019-02-11T03:49:46.458Z,99835.89
2019-02-11T03:52:18.441Z,99829.73
2019-02-11T03:54:50.440Z,99826.67
2019-02-11T03:57:22.537Z,99844.64
2019-02-11T03:59:55.877Z,99846.13
2019-02-11T04:02:27.801Z,99841.48
2019-02-11T04:04:59.754Z,99854.32
2019-02-11T04:07:31.680Z,99857.63
2019-02-11T04:10:04.938Z,99867.45
2019-02-11T04:12:36.902Z,99878.44
2019-02-11T04:15:10.023Z,99893.06
2019-02-11T04:17:42.033Z,99890.08
2019-02-11T04:20:14.026Z,99879.84
2019-02-11T04:22:45.959Z,99882.98
2019-02-11T04:25:17.861Z,99886.61
2019-02-11T04:27:49.788Z,99887.02
2019-02-11T04:30:21.765Z,99903.06
2019-02-11T04:32:53.724Z,99905.30
2019-02-11T04:35:25.940Z,99910.88
2019-02-11T04:37:57.862Z,99918.63
2019-02-11T04:40:29.793Z,99919.59
2019-02-11T04:43:02.034Z,99916.89
2019-02-11T04:45:33.966Z,99930.47
2019-02-11T04:48:05.868Z,99932.73
2019-02-11T04:50:37.854Z,99935.00
2019-02-11T04:53:09.837Z,99939.42
2019-02-11T04:55:42.532Z,99939.48
2019-02-11T04:58:14.520Z,99958.44
2019-02-11T05:00:47.019Z,99958.55
2019-02-11T05:03:19.000Z,99952.48
2019-02-11T05:05:50.919Z,99960.91
2019-02-11T05:08:22.995Z,99961.11
2019-02-11T05:10:55.406Z,99974.12
2019-02-11T05:13:27.647Z,99970.81
2019-02-11T05:15:59.596Z,99989.34
2019-02-11T05:18:31.503Z,99972.17
2019-02-11T05:21:04.005Z,99985.33
2019-02-11T05:23:36.219Z,99986.97
2019-02-11T05:26:08.514Z,99989.91
2019-02-11T05:28:41.914Z,99996.46
2019-02-11T05:31:14.344Z,100005.14
2019-02-11T05:33:47.041Z,100005.78
2019-02-11T05:36:19.434Z,99994.01
2019-02-11T05:38:51.363Z,100011.07
2019-02-11T05:41:23.496Z,100017.73
2019-02-11T05:43:56.055Z,100020.17
2019-02-11T05:46:28.429Z,100021.41
2019-02-11T05:49:00.511Z,100030.23
2019-02-11T05:51:32.627Z,100034.25
2019-02-11T05:54:04.716Z,100032.69
2019-02-11T05:56:36.723Z,100050.33
2019-02-11T05:59:08.708Z,100041.92
2019-02-11T06:01:40.643Z,100070.70
2019-02-11T06:04:12.564Z,100057.45
2019-02-11T06:06:44.566Z,100066.17
2019-02-11T06:09:16.488Z,100080.74
2019-02-11T06:11:48.430Z,100085.22
2019-02-11T06:14:20.456Z,100090.91
2019-02-11T06:16:52.397Z,100095.06
2019-02-11T06:19:24.416Z,100095.83
2019-02-11T06:21:56.329Z,100093.09
2019-02-11T06:24:28.342Z,100116.53
2019-02-11T06:27:00.276Z,100127.70
2019-02-11T06:29:32.273Z,100111.63
2019-02-11T06:32:04.169Z,100122.66
2019-02-11T06:34:36.177Z,100135.27
2019-02-11T06:37:08.190Z,100121.15
2019-02-11T06:39:40.181Z,100134.97
2019-02-11T06:42:12.199Z,100132.73
2019-02-11T06:44:44.116Z,100147.95
2019-02-11T06:47:16.047Z,100146.00
2019-02-11T06:49:48.341Z,100152.92
2019-02-11T06:52:32.445Z,100156.66
2019-02-11T06:55:07.400Z,100161.75
2019-02-11T06:57:39.406Z,100170.30
2019-02-11T07:00:16.337Z,100157.62
2019-02-11T07:02:48.252Z,100171.44
2019-02-11T07:05:20.197Z,100178.91
2019-02-11T07:07:52.111Z,100177.69
2019-02-11T07:10:24.050Z,100183.76
2019-02-11T07:12:55.988Z,100190.68
2019-02-11T07:15:27.928Z,100200.27
2019-02-11T07:17:59.840Z,100202.60
2019-02-11T07:20:31.789Z,100219.47
2019-02-11T07:23:03.705Z,100216.34
2019-02-11T07:25:35.638Z,100218.88
2019-02-11T07:28:07.548Z,100227.75
2019-02-11T07:30:39.484Z,100242.61
2019-02-11T07:33:11.787Z,100244.17
2019-02-11T07:35:44.175Z,100241.89
2019-02-11T07:38:16.109Z,100248.19
2019-02-11T07:40:48.029Z,100269.48
2019-02-11T07:43:21.601Z,100264.12
2019-02-11T07:45:55.179Z,100268.88
2019-02-11T07:48:27.115Z,100271.28
2019-02-11T07:50:59.062Z,100278.16
2019-02-11T07:53:30.988Z,100293.55
2019-02-11T07:56:02.911Z,100292.52
2019-02-11T07:58:34.919Z,100294.63
2019-02-11T08:01:06.906Z,100308.66
2019-02-11T08:03:38.841Z,100337.89
2019-02-11T08:06:10.915Z,100334.02
2019-02-11T08:08:42.844Z,100341.16
2019-02-11T08:11:15.137Z,100348.36
2019-02-11T08:13:47.134Z,100344.36
2019-02-11T08:16:19.056Z,100353.78
2019-02-11T08:18:51.345Z,100368.59
2019-02-11T08:21:23.275Z,100360.88
2019-02-11T08:23:55.233Z,100386.73
2019-02-11T08:26:27.532Z,100392.64
2019-02-11T08:28:59.464Z,100378.55
2019-02-11T08:31:31.394Z,100388.47
2019-02-11T08:34:03.397Z,100401.31
2019-02-11T08:36:35.314Z,100398.67
2019-02-11T08:39:08.981Z,100403.37
2019-02-11T08:41:40.891Z,100415.74
2019-02-11T08:44:12.834Z,100425.94
2019-02-11T08:46:44.839Z,100432.97
2019-02-11T08:49:16.764Z,100436.70
2019-02-11T08:51:48.791Z,100448.25
2019-02-11T08:54:20.716Z,100442.34
2019-02-11T08:56:52.634Z,100456.66
2019-02-11T08:59:24.855Z,100480.92
2019-02-11T09:01:56.885Z,100489.77
2019-02-11T09:04:31.517Z,100489.97
2019-02-11T09:07:03.444Z,100511.20
2019-02-11T09:09:35.365Z,100512.70
2019-02-11T09:12:07.283Z,100532.16
2019-02-11T09:14:39.222Z,100535.73
2019-02-11T09:17:11.674Z,100528.80
2019-02-11T09:19:43.672Z,100535.30
2019-02-11T09:22:15.623Z,100541.87
2019-02-11T09:24:48.983Z,100553.03
2019-02-11T09:27:20.964Z,100568.30
2019-02-11T09:29:52.979Z,100577.55
2019-02-11T09:32:24.872Z,100588.17
2019-02-11T09:34:56.825Z,100595.59
2019-02-11T09:37:28.780Z,100583.41
2019-02-11T09:40:00.940Z,100590.83
2019-02-11T09:42:32.926Z,100591.83
2019-02-11T09:45:11.168Z,100598.83
2019-02-11T09:47:43.080Z,100600.16
2019-02-11T09:50:19.729Z,100618.97
2019-02-11T09:52:51.816Z,100619.13
2019-02-11T09:55:28.178Z,100623.92
2019-02-11T09:58:00.088Z,100633.86
2019-02-11T10:00:32.212Z,100627.23
2019-02-11T10:03:04.161Z,100642.27
2019-02-11T10:05:36.093Z,100649.64
2019-02-11T10:08:08.088Z,100665.41
2019-02-11T10:10:40.012Z,100667.63
2019-02-11T10:13:11.955Z,100676.25
2019-02-11T10:15:43.913Z,100689.38
2019-02-11T10:18:16.470Z,100681.63
2019-02-11T10:20:48.450Z,100688.13
2019-02-11T10:23:20.585Z,100693.40
2019-02-11T10:25:52.634Z,100702.80
2019-02-11T10:28:24.665Z,100711.11
2019-02-11T10:30:56.620Z,100717.33
2019-02-11T10:33:28.558Z,100744.22
2019-02-11T10:36:00.465Z,100734.52
2019-02-11T10:38:36.557Z,100750.23
2019-02-11T10:41:06.421Z,100763.82
2019-02-11T10:43:38.330Z,100781.17
2019-02-11T10:46:10.270Z,100770.70
2019-02-11T10:48:42.178Z,100776.78
2019-02-11T10:51:14.643Z,100778.09
2019-02-11T10:53:46.559Z,100787.67
2019-02-11T10:56:18.479Z,100786.18
2019-02-11T10:58:50.741Z,100794.69
2019-02-11T11:01:23.839Z,100797.48
2019-02-11T11:03:56.038Z,100819.23
2019-02-11T11:06:28.425Z,100810.40
2019-02-11T11:09:00.377Z,100821.79
2019-02-11T11:11:32.337Z,100822.77
2019-02-11T11:14:04.373Z,100831.12
2019-02-11T11:16:36.281Z,100832.25
2019-02-11T11:19:08.359Z,100853.94
2019-02-11T11:21:40.343Z,100850.73
2019-02-11T11:24:12.570Z,100848.03
2019-02-11T11:26:44.544Z,100864.41
2019-02-11T11:29:16.776Z,100869.55
2019-02-11T11:31:49.065Z,100871.71
2019-02-11T11:34:20.985Z,100880.33
2019-02-11T11:36:52.984Z,100884.52
2019-02-11T11:39:25.593Z,100898.78
2019-02-11T11:41:57.459Z,100905.33
2019-02-11T11:44:29.504Z,100889.02
2019-02-11T11:47:01.435Z,100898.02
2019-02-11T11:49:33.628Z,100903.81
2019-02-11T11:52:05.556Z,100920.50
2019-02-11T11:54:37.539Z,100917.96
2019-02-11T11:57:09.507Z,100922.95
2019-02-11T11:59:41.407Z,100931.68
2019-02-11T12:02:16.087Z,100934.70
2019-02-11T12:04:50.127Z,100947.33
2019-02-11T12:07:22.252Z,100963.00
2019-02-11T12:10:00.624Z,100967.98
2019-02-11T12:12:32.851Z,100969.64
2019-02-11T12:15:12.025Z,100969.56
2019-02-11T12:17:46.600Z,100981.29
2019-02-11T12:20:18.533Z,100983.98
2019-02-11T12:22:51.068Z,101002.26
2019-02-11T12:25:23.943Z,100992.34
2019-02-11T12:27:55.873Z,101010.45
2019-02-11T12:30:28.209Z,101008.19
2019-02-11T12:33:00.245Z,101001.59
2019-02-11T12:35:32.226Z,101023.61
2019-02-11T12:38:04.270Z,101023.08
2019-02-11T12:40:36.197Z,101045.97
2019-02-11T12:43:08.100Z,101044.77
2019-02-11T12:45:40.040Z,101054.37
2019-02-11T12:48:12.098Z,101064.18
2019-02-11T12:50:47.414Z,101066.77
2019-02-11T12:53:20.887Z,101075.41
2019-02-11T12:55:55.791Z,101085.85
2019-02-11T12:58:31.193Z,101090.58
2019-02-11T13:01:07.618Z,101092.00
2019-02-11T13:03:40.009Z,101095.26
2019-02-11T13:06:16.914Z,101098.37
2019-02-11T13:08:49.112Z,101096.02
2019-02-11T13:11:21.196Z,101120.22
2019-02-11T13:13:53.091Z,101119.59
2019-02-11T13:16:25.175Z,101139.30
2019-02-11T13:18:57.095Z,101136.95
2019-02-11T13:21:29.034Z,101133.25
2019-02-11T13:24:04.120Z,101146.64
2019-02-11T13:26:36.171Z,101159.23
2019-02-11T13:29:08.142Z,101157.06
2019-02-11T13:31:40.071Z,101177.55
2019-02-11T13:34:12.002Z,101171.41
2019-02-11T13:36:44.274Z,101131.45
2019-02-11T13:39:16.262Z,101185.23
2019-02-11T13:41:48.352Z,101184.53
2019-02-11T13:44:20.468Z,101203.06
2019-02-11T13:46:52.399Z,101195.58
2019-02-11T13:49:24.477Z,101225.75
2019-02-11T13:51:56.753Z,101212.22
2019-02-11T13:54:28.999Z,101220.90
2019-02-11T13:57:01.251Z,101234.56
2019-02-11T13:59:33.250Z,101251.58
2019-02-11T14:02:05.231Z,101269.62
2019-02-11T14:04:37.247Z,101270.53
2019-02-11T14:07:09.268Z,101265.92
2019-02-11T14:09:41.196Z,101270.67
2019-02-11T14:12:13.144Z,101273.67
2019-02-11T14:14:45.438Z,101282.72
2019-02-11T14:17:17.756Z,101290.58
2019-02-11T14:19:50.061Z,101296.87
2019-02-11T14:22:21.986Z,101298.86
2019-02-11T14:24:53.896Z,101302.61
2019-02-11T14:27:25.885Z,101308.47
2019-02-11T14:29:57.784Z,101332.73
2019-02-11T14:32:31.531Z,101324.89
2019-02-11T14:35:03.748Z,101334.39
2019-02-11T14:37:36.236Z,101335.27
2019-02-11T14:40:11.549Z,101348.67
2019-02-11T14:42:43.513Z,101345.70
2019-02-11T14:45:20.687Z,101352.81
2019-02-11T14:47:52.571Z,101370.45
2019-02-11T14:50:24.900Z,101364.52
2019-02-11T14:52:56.836Z,101367.45
2019-02-11T14:55:28.764Z,101378.46
2019-02-11T14:58:00.747Z,101383.97
2019-02-11T15:00:32.706Z,101397.14
2019-02-11T15:03:04.635Z,101396.14
2019-02-11T15:05:37.071Z,101390.61
2019-02-11T15:08:09.014Z,101398.11
2019-02-11T15:10:40.904Z,101401.22
2019-02-11T15:13:12.847Z,101406.80
2019-02-11T15:15:44.740Z,101423.97
2019-02-11T15:18:16.698Z,101418.91
2019-02-11T15:20:48.608Z,101437.06
2019-02-11T15:23:20.580Z,101426.87
2019-02-11T15:25:52.476Z,101450.00
2019-02-11T15:28:24.386Z,101447.88
2019-02-11T15:30:56.322Z,101443.53
2019-02-11T15:33:28.296Z,101456.52
2019-02-11T15:36:00.550Z,101462.73
2019-02-11T15:38:32.786Z,101477.28
2019-02-11T15:41:04.768Z,101487.92
2019-02-11T15:43:36.699Z,101483.80
2019-02-11T15:46:08.679Z,101499.71
2019-02-11T15:48:43.170Z,101496.09
2019-02-11T15:51:14.459Z,101507.50
2019-02-11T15:53:46.401Z,101514.85
2019-02-11T15:56:18.310Z,101524.80
2019-02-11T15:58:50.224Z,101539.18
2019-02-11T16:01:22.135Z,101546.30
2019-02-11T16:03:54.388Z,101544.26
2019-02-11T16:06:26.300Z,101547.84
2019-02-11T16:09:04.300Z,101550.30
2019-02-11T16:11:32.305Z,101551.18
2019-02-11T16:14:04.214Z,101555.58
2019-02-11T16:16:36.172Z,101568.87
2019-02-11T16:19:08.103Z,101566.73
2019-02-11T16:21:40.047Z,101564.37
2019-02-11T16:24:11.956Z,101573.47
2019-02-11T16:26:43.927Z,101594.17
2019-02-11T16:29:15.870Z,101590.16
2019-02-11T16:31:47.812Z,101602.89
2019-02-11T16:34:19.712Z,101610.72
2019-02-11T16:36:51.625Z,101604.09
2019-02-11T16:39:23.822Z,101607.77
2019-02-11T16:41:55.761Z,101617.77
2019-02-11T16:44:27.676Z,101621.34
2019-02-11T16:46:59.584Z,101621.47
2019-02-11T16:49:31.528Z,101634.63
2019-02-11T16:52:03.441Z,101648.27
2019-02-11T16:54:35.626Z,101650.58
2019-02-11T16:57:07.877Z,101655.78
2019-02-11T16:59:40.147Z,101663.74
2019-02-11T17:02:12.184Z,101672.58
2019-02-11T17:04:44.376Z,101685.93
2019-02-11T17:07:16.677Z,101694.63
2019-02-11T17:09:48.569Z,101711.36
2019-02-11T17:12:20.511Z,101702.69
2019-02-11T17:14:52.427Z,101711.95
2019-02-11T17:17:24.371Z,101705.19
2019-02-11T17:19:56.424Z,101714.87
2019-02-11T17:22:28.376Z,101725.17
2019-02-11T17:25:00.296Z,101738.30
2019-02-11T17:27:32.250Z,101737.67
2019-02-11T17:30:06.162Z,101748.78
2019-02-11T17:32:38.074Z,101757.39
2019-02-11T17:35:11.097Z,101756.16
2019-02-11T17:37:43.016Z,101765.09
2019-02-11T17:40:15.654Z,101756.19
2019-02-11T17:42:47.571Z,101767.34
2019-02-11T17:45:23.887Z,101762.30
2019-02-11T17:47:56.045Z,101781.34
2019-02-11T17:50:27.964Z,101780.01
2019-02-11T17:53:10.736Z,101793.22
2019-02-11T17:55:42.658Z,101798.88
2019-02-11T17:58:14.874Z,101798.02
2019-02-11T18:00:52.640Z,101810.76
2019-02-11T18:03:24.645Z,101812.96
2019-02-11T18:05:56.608Z,101833.55
2019-02-11T18:08:28.533Z,101834.42
2019-02-11T18:11:00.460Z,101831.56
2019-02-11T18:13:32.521Z,101836.38
2019-02-11T18:16:04.478Z,101850.86
2019-02-11T18:18:36.397Z,101842.27
2019-02-11T18:21:08.394Z,101858.97
2019-02-11T18:23:40.298Z,101849.52
2019-02-11T18:26:12.248Z,101859.30
2019-02-11T18:28:44.171Z,101855.49
2019-02-11T18:31:16.133Z,101859.94
2019-02-11T18:33:48.839Z,101875.91
2019-02-11T18:36:20.891Z,101879.77
2019-02-11T18:38:52.847Z,101890.94
2019-02-11T18:41:24.832Z,101906.84
2019-02-11T18:43:56.819Z,101895.83
2019-02-11T18:46:28.839Z,101902.55
2019-02-11T18:49:00.877Z,101913.24
2019-02-11T18:51:32.948Z,101923.52
2019-02-11T18:54:04.951Z,101914.50
2019-02-11T18:56:36.861Z,101924.31
2019-02-11T18:59:08.783Z,101913.42
2019-02-11T19:01:40.786Z,101930.56
2019-02-11T19:04:12.696Z,101938.08
2019-02-11T19:06:44.975Z,101935.77
2019-02-11T19:09:18.774Z,101938.95
2019-02-11T19:11:50.705Z,101943.95
2019-02-11T19:14:22.881Z,101939.59
2019-02-11T19:16:54.802Z,101936.02
2019-02-11T19:19:27.049Z,101945.77
2019-02-11T19:21:59.317Z,101954.88
2019-02-11T19:24:31.263Z,101956.63
2019-02-11T19:27:03.197Z,101949.47
2019-02-11T19:29:35.115Z,101982.02
2019-02-11T19:32:07.097Z,101955.66
2019-02-11T19:34:39.104Z,101953.48
2019-02-11T19:37:11.014Z,101958.09
2019-02-11T19:39:42.967Z,101966.91
2019-02-11T19:42:14.884Z,101960.92
2019-02-11T19:44:46.812Z,101960.95
2019-02-11T19:47:18.730Z,101965.56
2019-02-11T19:49:52.064Z,101978.08
2019-02-11T19:52:24.332Z,101970.61
2019-02-11T19:54:56.262Z,101989.72
2019-02-11T19:57:28.179Z,101984.99
2019-02-11T20:00:00.125Z,101974.20
2019-02-11T20:02:32.113Z,101976.31
2019-02-11T20:05:04.623Z,101980.51
2019-02-11T20:07:36.542Z,101989.09
2019-02-11T20:10:15.500Z,101982.87
2019-02-11T20:12:47.741Z,101990.78
2019-02-11T20:15:29.106Z,101990.00
2019-02-11T20:18:01.096Z,102004.89
2019-02-11T20:20:33.018Z,102003.41
2019-02-11T20:23:04.950Z,101994.40
2019-02-11T20:25:36.958Z,101997.30
2019-02-11T20:28:08.877Z,102004.78
2019-02-11T20:30:40.816Z,101998.82
2019-02-11T20:33:12.732Z,102009.95
2019-02-11T20:35:44.680Z,102012.59
2019-02-11T20:38:17.444Z,102012.27
2019-02-11T20:40:49.361Z,102028.61
2019-02-11T20:43:21.286Z,102026.47
2019-02-11T20:45:53.284Z,102033.24
2019-02-11T20:48:26.396Z,102035.14
2019-02-11T20:50:58.635Z,102050.70
2019-02-11T20:53:30.552Z,102040.20
2019-02-11T20:56:02.507Z,102038.71
2019-02-11T20:58:34.420Z,102053.53
2019-02-11T21:01:06.365Z,102052.03
2019-02-11T21:03:38.334Z,102047.91
2019-02-11T21:06:10.616Z,102054.55
2019-02-11T21:08:42.665Z,102057.73
2019-02-11T21:11:15.009Z,102068.99
2019-02-11T21:13:47.256Z,102061.39
2019-02-11T21:16:19.169Z,102076.91
2019-02-11T21:18:51.136Z,102071.16
2019-02-11T21:21:23.068Z,102071.89
2019-02-11T21:23:55.056Z,102086.35
2019-02-11T21:26:27.056Z,102082.50
2019-02-11T21:28:58.978Z,102092.00
2019-02-11T21:31:30.907Z,102087.97
2019-02-11T21:34:02.823Z,102087.37
2019-02-11T21:36:34.760Z,102088.98
2019-02-11T21:39:07.871Z,102090.36
2019-02-11T21:41:40.154Z,102107.05
2019-02-11T21:44:12.107Z,102117.02
2019-02-11T21:46:44.026Z,102121.81
2019-02-11T21:49:16.021Z,102122.79
2019-02-11T21:51:47.942Z,102127.53
2019-02-11T21:54:19.876Z,102124.59
2019-02-11T21:56:51.788Z,102127.00
2019-02-11T21:59:23.908Z,102135.17
2019-02-11T22:01:56.180Z,102129.77
2019-02-11T22:04:28.108Z,102145.58
2019-02-11T22:07:00.035Z,102149.23
2019-02-11T22:09:31.949Z,102159.19
2019-02-11T22:12:03.865Z,102150.19
2019-02-11T22:14:35.786Z,102165.15
2019-02-11T22:17:08.168Z,102169.19
2019-02-11T22:19:40.188Z,102164.50
2019-02-11T22:22:12.174Z,102152.81
2019-02-11T22:24:44.106Z,102139.58
2019-02-11T22:27:16.028Z,102157.42
2019-02-11T22:29:47.978Z,102165.52
2019-02-11T22:32:20.248Z,102173.59
2019-02-11T22:34:52.192Z,102166.08
2019-02-11T22:37:24.643Z,102180.01
2019-02-11T22:39:56.574Z,102189.18
2019-02-11T22:42:28.493Z,102194.37
2019-02-11T22:45:00.785Z,102197.36
2019-02-11T22:47:32.768Z,102196.20
2019-02-11T22:50:09.079Z,102207.97
2019-02-11T22:52:41.267Z,102196.45
2019-02-11T22:55:15.308Z,102209.29
2019-02-11T22:57:47.691Z,102213.73
2019-02-11T23:00:41.131Z,102209.13
2019-02-11T23:03:13.485Z,102220.50
2019-02-11T23:05:45.770Z,102224.49
2019-02-11T23:08:18.172Z,102205.70
2019-02-11T23:10:50.120Z,102222.01
2019-02-11T23:13:22.186Z,102217.70
2019-02-11T23:15:54.123Z,102230.16
2019-02-11T23:18:26.055Z,102224.63
2019-02-11T23:20:58.000Z,102217.17
2019-02-11T23:23:29.909Z,102220.42
2019-02-11T23:26:01.930Z,102218.44
2019-02-11T23:28:33.846Z,102220.13
2019-02-11T23:31:05.789Z,102217.20
2019-02-11T23:33:37.708Z,102229.55
2019-02-11T23:36:09.641Z,102218.78
2019-02-11T23:38:41.555Z,102231.75
2019-02-11T23:41:13.555Z,102233.61
2019-02-11T23:43:45.470Z,102231.45
2019-02-11T23:46:17.385Z,102230.13
2019-02-11T23:48:49.409Z,102264.67
2019-02-11T23:51:21.339Z,102249.52
2019-02-11T23:53:53.257Z,102253.50
2019-02-11T23:56:25.203Z,102263.87
2019-02-11T23:58:57.162Z,102269.80
